sensor_id;sensor_type;location;lat;lon;timestamp;pressure;altitude;pressure_sealevel;temperature;humidity
59650;BME280;46162;57.568;25.814;2023-04-21T00:00:50;101676.81;;;4.39;100.00
59650;BME280;46162;57.568;25.814;2023-04-21T00:03:19;101675.78;;;4.25;100.00
59650;BME280;46162;57.568;25.814;2023-04-21T00:05:50;101679.53;;;3.74;100.00
59650;BME280;46162;57.568;25.814;2023-04-21T00:08:19;101672.47;;;3.73;100.00
59650;BME280;46162;57.568;25.814;2023-04-21T00:10:48;101670.69;;;3.56;100.00
59650;BME280;46162;57.568;25.814;2023-04-21T00:13:18;101679.38;;;3.43;100.00
59650;BME280;46162;57.568;25.814;2023-04-21T00:15:47;101672.78;;;3.33;100.00
59650;BME280;46162;57.568;25.814;2023-04-21T00:18:16;101673.81;;;3.31;100.00
59650;BME280;46162;57.568;25.814;2023-04-21T00:20:44;101670.38;;;3.29;100.00
59650;BME280;46162;57.568;25.814;2023-04-21T00:23:14;101671.25;;;3.29;100.00
59650;BME280;46162;57.568;25.814;2023-04-21T00:25:43;101668.19;;;3.19;100.00
59650;BME280;46162;57.568;25.814;2023-04-21T00:28:11;101676.59;;;3.12;100.00
59650;BME280;46162;57.568;25.814;2023-04-21T00:30:41;101668.50;;;2.78;100.00
59650;BME280;46162;57.568;25.814;2023-04-21T00:33:09;101665.38;;;2.70;100.00
59650;BME280;46162;57.568;25.814;2023-04-21T00:35:38;101667.25;;;2.68;100.00
59650;BME280;46162;57.568;25.814;2023-04-21T00:38:07;101660.97;;;2.69;100.00
59650;BME280;46162;57.568;25.814;2023-04-21T00:40:35;101661.47;;;2.77;100.00
59650;BME280;46162;57.568;25.814;2023-04-21T00:43:05;101654.63;;;2.72;100.00
59650;BME280;46162;57.568;25.814;2023-04-21T00:45:34;101657.06;;;2.76;100.00
59650;BME280;46162;57.568;25.814;2023-04-21T00:48:04;101654.88;;;2.85;100.00
59650;BME280;46162;57.568;25.814;2023-04-21T00:50:33;101653.63;;;2.92;100.00
59650;BME280;46162;57.568;25.814;2023-04-21T00:53:02;101654.16;;;2.98;100.00
59650;BME280;46162;57.568;25.814;2023-04-21T00:55:30;101656.59;;;3.03;100.00
59650;BME280;46162;57.568;25.814;2023-04-21T00:57:59;101659.97;;;3.07;100.00
59650;BME280;46162;57.568;25.814;2023-04-21T01:00:29;101653.06;;;3.03;100.00
59650;BME280;46162;57.568;25.814;2023-04-21T01:02:59;101652.72;;;3.09;100.00
59650;BME280;46162;57.568;25.814;2023-04-21T01:05:30;101653.28;;;3.15;100.00
59650;BME280;46162;57.568;25.814;2023-04-21T01:08:00;101648.31;;;3.25;100.00
59650;BME280;46162;57.568;25.814;2023-04-21T01:10:29;101642.81;;;3.28;100.00
59650;BME280;46162;57.568;25.814;2023-04-21T01:12:57;101646.19;;;3.32;100.00
59650;BME280;46162;57.568;25.814;2023-04-21T01:15:26;101647.75;;;3.36;100.00
59650;BME280;46162;57.568;25.814;2023-04-21T01:17:57;101644.28;;;3.34;100.00
59650;BME280;46162;57.568;25.814;2023-04-21T01:20:26;101632.75;;;3.33;100.00
59650;BME280;46162;57.568;25.814;2023-04-21T01:22:58;101637.31;;;3.31;100.00
59650;BME280;46162;57.568;25.814;2023-04-21T01:25:27;101640.88;;;3.32;100.00
59650;BME280;46162;57.568;25.814;2023-04-21T01:27:56;101639.97;;;3.31;100.00
59650;BME280;46162;57.568;25.814;2023-04-21T01:30:24;101640.75;;;3.33;100.00
59650;BME280;46162;57.568;25.814;2023-04-21T01:32:53;101645.00;;;3.37;100.00
59650;BME280;46162;57.568;25.814;2023-04-21T01:35:23;101635.00;;;3.41;100.00
59650;BME280;46162;57.568;25.814;2023-04-21T01:37:52;101633.13;;;3.43;100.00
59650;BME280;46162;57.568;25.814;2023-04-21T01:40:22;101626.59;;;3.49;100.00
59650;BME280;46162;57.568;25.814;2023-04-21T01:42:51;101630.94;;;3.51;100.00
59650;BME280;46162;57.568;25.814;2023-04-21T01:45:19;101631.84;;;3.50;100.00
59650;BME280;46162;57.568;25.814;2023-04-21T01:47:48;101629.66;;;3.41;100.00
59650;BME280;46162;57.568;25.814;2023-04-21T01:50:16;101622.28;;;3.46;100.00
59650;BME280;46162;57.568;25.814;2023-04-21T01:52:45;101626.59;;;3.49;100.00
59650;BME280;46162;57.568;25.814;2023-04-21T01:55:14;101614.81;;;3.53;100.00
59650;BME280;46162;57.568;25.814;2023-04-21T01:57:44;101626.19;;;3.56;100.00
59650;BME280;46162;57.568;25.814;2023-04-21T02:00:13;101618.94;;;3.58;100.00
59650;BME280;46162;57.568;25.814;2023-04-21T02:02:43;101616.53;;;3.54;100.00
59650;BME280;46162;57.568;25.814;2023-04-21T02:05:12;101615.03;;;3.48;100.00
59650;BME280;46162;57.568;25.814;2023-04-21T02:07:41;101624.00;;;3.47;100.00
59650;BME280;46162;57.568;25.814;2023-04-21T02:10:09;101621.97;;;3.52;100.00
59650;BME280;46162;57.568;25.814;2023-04-21T02:12:38;101619.09;;;3.55;100.00
59650;BME280;46162;57.568;25.814;2023-04-21T02:15:10;101615.84;;;3.50;100.00
59650;BME280;46162;57.568;25.814;2023-04-21T02:17:39;101616.63;;;3.52;100.00
59650;BME280;46162;57.568;25.814;2023-04-21T02:20:09;101608.44;;;3.55;100.00
59650;BME280;46162;57.568;25.814;2023-04-21T02:22:39;101602.84;;;3.60;100.00
59650;BME280;46162;57.568;25.814;2023-04-21T02:25:08;101594.75;;;3.61;100.00
59650;BME280;46162;57.568;25.814;2023-04-21T02:27:38;101592.94;;;3.62;100.00
59650;BME280;46162;57.568;25.814;2023-04-21T02:30:07;101594.47;;;3.50;100.00
59650;BME280;46162;57.568;25.814;2023-04-21T02:32:37;101589.19;;;3.49;100.00
59650;BME280;46162;57.568;25.814;2023-04-21T02:35:07;101592.66;;;3.51;100.00
59650;BME280;46162;57.568;25.814;2023-04-21T02:37:35;101583.53;;;3.55;100.00
59650;BME280;46162;57.568;25.814;2023-04-21T02:40:05;101585.97;;;3.59;100.00
59650;BME280;46162;57.568;25.814;2023-04-21T02:42:34;101584.06;;;3.61;100.00
59650;BME280;46162;57.568;25.814;2023-04-21T02:45:04;101585.59;;;3.65;100.00
59650;BME280;46162;57.568;25.814;2023-04-21T02:47:32;101575.81;;;3.66;100.00
59650;BME280;46162;57.568;25.814;2023-04-21T02:50:04;101579.94;;;3.72;100.00
59650;BME280;46162;57.568;25.814;2023-04-21T02:52:34;101573.75;;;3.71;100.00
59650;BME280;46162;57.568;25.814;2023-04-21T02:55:03;101573.75;;;3.71;100.00
59650;BME280;46162;57.568;25.814;2023-04-21T02:57:32;101580.13;;;3.69;100.00
59650;BME280;46162;57.568;25.814;2023-04-21T03:00:00;101584.44;;;3.71;100.00
59650;BME280;46162;57.568;25.814;2023-04-21T03:02:31;101580.88;;;3.71;100.00
59650;BME280;46162;57.568;25.814;2023-04-21T03:04:59;101572.19;;;3.67;100.00
59650;BME280;46162;57.568;25.814;2023-04-21T03:07:31;101574.78;;;3.69;100.00
59650;BME280;46162;57.568;25.814;2023-04-21T03:09:59;101570.63;;;3.63;100.00
59650;BME280;46162;57.568;25.814;2023-04-21T03:12:28;101574.16;;;3.63;100.00
59650;BME280;46162;57.568;25.814;2023-04-21T03:14:57;101580.44;;;3.62;100.00
59650;BME280;46162;57.568;25.814;2023-04-21T03:17:26;101576.56;;;3.68;100.00
59650;BME280;46162;57.568;25.814;2023-04-21T03:19:58;101573.88;;;3.68;100.00
59650;BME280;46162;57.568;25.814;2023-04-21T03:22:27;101577.28;;;3.72;100.00
59650;BME280;46162;57.568;25.814;2023-04-21T03:24:57;101581.75;;;3.71;100.00
59650;BME280;46162;57.568;25.814;2023-04-21T03:27:26;101590.81;;;3.69;100.00
59650;BME280;46162;57.568;25.814;2023-04-21T03:29:55;101579.16;;;3.70;100.00
59650;BME280;46162;57.568;25.814;2023-04-21T03:32:24;101581.81;;;3.70;100.00
59650;BME280;46162;57.568;25.814;2023-04-21T03:34:53;101584.44;;;3.71;100.00
59650;BME280;46162;57.568;25.814;2023-04-21T03:37:22;101578.19;;;3.71;100.00
59650;BME280;46162;57.568;25.814;2023-04-21T03:39:50;101573.63;;;3.73;100.00
59650;BME280;46162;57.568;25.814;2023-04-21T03:42:21;101574.59;;;3.72;100.00
59650;BME280;46162;57.568;25.814;2023-04-21T03:44:50;101576.31;;;3.73;100.00
59650;BME280;46162;57.568;25.814;2023-04-21T03:47:18;101570.03;;;3.74;100.00
59650;BME280;46162;57.568;25.814;2023-04-21T03:49:47;101572.53;;;3.77;100.00
59650;BME280;46162;57.568;25.814;2023-04-21T03:52:15;101574.25;;;3.78;100.00
59650;BME280;46162;57.568;25.814;2023-04-21T03:54:44;101578.53;;;3.80;100.00
59650;BME280;46162;57.568;25.814;2023-04-21T03:57:13;101568.75;;;3.81;100.00
59650;BME280;46162;57.568;25.814;2023-04-21T03:59:43;101572.03;;;3.86;100.00
59650;BME280;46162;57.568;25.814;2023-04-21T04:02:12;101567.44;;;3.88;100.00
59650;BME280;46162;57.568;25.814;2023-04-21T04:04:41;101559.25;;;3.91;100.00
59650;BME280;46162;57.568;25.814;2023-04-21T04:07:10;101564.41;;;3.94;100.00
59650;BME280;46162;57.568;25.814;2023-04-21T04:09:38;101566.06;;;3.97;100.00
59650;BME280;46162;57.568;25.814;2023-04-21T04:12:07;101558.72;;;4.00;100.00
59650;BME280;46162;57.568;25.814;2023-04-21T04:14:37;101568.22;;;4.06;100.00
59650;BME280;46162;57.568;25.814;2023-04-21T04:17:08;101563.53;;;4.09;100.00
59650;BME280;46162;57.568;25.814;2023-04-21T04:19:36;101565.09;;;4.14;100.00
59650;BME280;46162;57.568;25.814;2023-04-21T04:22:05;101559.81;;;4.12;100.00
59650;BME280;46162;57.568;25.814;2023-04-21T04:24:34;101559.56;;;4.17;100.00
59650;BME280;46162;57.568;25.814;2023-04-21T04:27:02;101555.50;;;4.25;100.00
59650;BME280;46162;57.568;25.814;2023-04-21T04:29:31;101560.41;;;4.33;100.00
59650;BME280;46162;57.568;25.814;2023-04-21T04:32:01;101555.97;;;4.32;100.00
59650;BME280;46162;57.568;25.814;2023-04-21T04:34:31;101550.56;;;4.34;100.00
59650;BME280;46162;57.568;25.814;2023-04-21T04:37:03;101543.13;;;4.39;100.00
59650;BME280;46162;57.568;25.814;2023-04-21T04:39:32;101553.31;;;4.32;100.00
59650;BME280;46162;57.568;25.814;2023-04-21T04:42:05;101547.44;;;4.41;100.00
59650;BME280;46162;57.568;25.814;2023-04-21T04:44:35;101542.84;;;4.43;100.00
59650;BME280;46162;57.568;25.814;2023-04-21T04:47:03;101549.91;;;4.44;100.00
59650;BME280;46162;57.568;25.814;2023-04-21T04:49:35;101550.41;;;4.51;100.00
59650;BME280;46162;57.568;25.814;2023-04-21T04:52:04;101551.97;;;4.55;100.00
59650;BME280;46162;57.568;25.814;2023-04-21T04:54:33;101546.31;;;4.60;100.00
59650;BME280;46162;57.568;25.814;2023-04-21T04:57:02;101546.88;;;4.65;100.00
59650;BME280;46162;57.568;25.814;2023-04-21T04:59:32;101550.75;;;4.75;100.00
59650;BME280;46162;57.568;25.814;2023-04-21T05:02:02;101544.66;;;4.87;100.00
59650;BME280;46162;57.568;25.814;2023-04-21T05:04:32;101548.75;;;4.93;100.00
59650;BME280;46162;57.568;25.814;2023-04-21T05:07:02;101548.66;;;4.94;100.00
59650;BME280;46162;57.568;25.814;2023-04-21T05:09:32;101540.63;;;5.09;100.00
59650;BME280;46162;57.568;25.814;2023-04-21T05:12:01;101539.50;;;5.13;100.00
59650;BME280;46162;57.568;25.814;2023-04-21T05:14:29;101531.06;;;5.19;100.00
59650;BME280;46162;57.568;25.814;2023-04-21T05:16:58;101540.56;;;5.25;100.00
59650;BME280;46162;57.568;25.814;2023-04-21T05:19:26;101533.38;;;5.25;100.00
59650;BME280;46162;57.568;25.814;2023-04-21T05:21:57;101531.06;;;5.33;100.00
59650;BME280;46162;57.568;25.814;2023-04-21T05:24:29;101537.75;;;5.41;100.00
59650;BME280;46162;57.568;25.814;2023-04-21T05:26:58;101535.06;;;5.55;100.00
59650;BME280;46162;57.568;25.814;2023-04-21T05:29:27;101525.00;;;5.58;100.00
59650;BME280;46162;57.568;25.814;2023-04-21T05:31:55;101522.00;;;5.63;100.00
59650;BME280;46162;57.568;25.814;2023-04-21T05:34:24;101526.31;;;5.66;100.00
59650;BME280;46162;57.568;25.814;2023-04-21T05:36:52;101520.66;;;5.70;100.00
59650;BME280;46162;57.568;25.814;2023-04-21T05:39:21;101524.56;;;5.79;100.00
59650;BME280;46162;57.568;25.814;2023-04-21T05:41:51;101523.84;;;5.90;100.00
59650;BME280;46162;57.568;25.814;2023-04-21T05:44:20;101517.16;;;5.97;100.00
59650;BME280;46162;57.568;25.814;2023-04-21T05:46:48;101515.88;;;6.02;100.00
59650;BME280;46162;57.568;25.814;2023-04-21T05:49:17;101524.84;;;6.16;100.00
59650;BME280;46162;57.568;25.814;2023-04-21T05:51:46;101514.34;;;6.25;100.00
59650;BME280;46162;57.568;25.814;2023-04-21T05:54:14;101518.53;;;6.30;100.00
59650;BME280;46162;57.568;25.814;2023-04-21T05:56:44;101511.03;;;6.35;100.00
59650;BME280;46162;57.568;25.814;2023-04-21T05:59:15;101511.59;;;6.40;100.00
59650;BME280;46162;57.568;25.814;2023-04-21T06:01:44;101511.19;;;6.46;100.00
59650;BME280;46162;57.568;25.814;2023-04-21T06:04:12;101514.25;;;6.40;100.00
59650;BME280;46162;57.568;25.814;2023-04-21T06:06:41;101510.34;;;6.58;100.00
59650;BME280;46162;57.568;25.814;2023-04-21T06:09:10;101507.22;;;6.64;100.00
59650;BME280;46162;57.568;25.814;2023-04-21T06:11:41;101506.25;;;6.65;100.00
59650;BME280;46162;57.568;25.814;2023-04-21T06:14:10;101504.53;;;6.64;100.00
59650;BME280;46162;57.568;25.814;2023-04-21T06:16:40;101507.75;;;6.70;100.00
59650;BME280;46162;57.568;25.814;2023-04-21T06:19:08;101501.75;;;6.79;100.00
59650;BME280;46162;57.568;25.814;2023-04-21T06:21:37;101497.34;;;6.91;100.00
59650;BME280;46162;57.568;25.814;2023-04-21T06:24:06;101502.19;;;6.98;100.00
59650;BME280;46162;57.568;25.814;2023-04-21T06:26:35;101479.81;;;7.10;100.00
59650;BME280;46162;57.568;25.814;2023-04-21T06:29:04;101488.06;;;7.20;100.00
59650;BME280;46162;57.568;25.814;2023-04-21T06:31:32;101483.66;;;7.32;100.00
59650;BME280;46162;57.568;25.814;2023-04-21T06:34:02;101483.94;;;7.40;100.00
59650;BME280;46162;57.568;25.814;2023-04-21T06:36:31;101480.06;;;7.44;100.00
59650;BME280;46162;57.568;25.814;2023-04-21T06:38:59;101489.19;;;7.54;100.00
59650;BME280;46162;57.568;25.814;2023-04-21T06:41:28;101493.28;;;7.71;100.00
59650;BME280;46162;57.568;25.814;2023-04-21T06:43:56;101494.84;;;7.87;100.00
59650;BME280;46162;57.568;25.814;2023-04-21T06:46:25;101495.88;;;7.97;100.00
59650;BME280;46162;57.568;25.814;2023-04-21T06:48:54;101493.78;;;8.01;100.00
59650;BME280;46162;57.568;25.814;2023-04-21T06:51:24;101492.00;;;8.01;100.00
59650;BME280;46162;57.568;25.814;2023-04-21T06:53:53;101493.22;;;8.08;100.00
59650;BME280;46162;57.568;25.814;2023-04-21T06:56:21;101490.34;;;8.23;100.00
59650;BME280;46162;57.568;25.814;2023-04-21T06:58:50;101484.88;;;8.35;100.00
59650;BME280;46162;57.568;25.814;2023-04-21T07:01:19;101485.19;;;8.44;100.00
59650;BME280;46162;57.568;25.814;2023-04-21T07:03:47;101480.06;;;8.52;100.00
59650;BME280;46162;57.568;25.814;2023-04-21T07:06:16;101463.66;;;8.55;100.00
59650;BME280;46162;57.568;25.814;2023-04-21T07:08:46;101466.50;;;8.65;100.00
59650;BME280;46162;57.568;25.814;2023-04-21T07:11:15;101462.22;;;8.85;100.00
59650;BME280;46162;57.568;25.814;2023-04-21T07:13:44;101463.59;;;8.90;100.00
59650;BME280;46162;57.568;25.814;2023-04-21T07:16:12;101455.63;;;9.00;100.00
59650;BME280;46162;57.568;25.814;2023-04-21T07:18:41;101464.44;;;9.13;100.00
59650;BME280;46162;57.568;25.814;2023-04-21T07:21:09;101459.66;;;9.17;100.00
59650;BME280;46162;57.568;25.814;2023-04-21T07:23:38;101447.53;;;9.22;100.00
59650;BME280;46162;57.568;25.814;2023-04-21T07:26:08;101449.72;;;9.29;100.00
59650;BME280;46162;57.568;25.814;2023-04-21T07:28:37;101451.16;;;9.44;100.00
59650;BME280;46162;57.568;25.814;2023-04-21T07:31:06;101448.56;;;9.54;100.00
59650;BME280;46162;57.568;25.814;2023-04-21T07:33:35;101443.28;;;9.63;100.00
59650;BME280;46162;57.568;25.814;2023-04-21T07:36:04;101445.72;;;9.66;100.00
59650;BME280;46162;57.568;25.814;2023-04-21T07:38:33;101446.69;;;9.77;100.00
59650;BME280;46162;57.568;25.814;2023-04-21T07:41:02;101449.06;;;9.91;100.00
59650;BME280;46162;57.568;25.814;2023-04-21T07:43:32;101445.63;;;9.89;100.00
59650;BME280;46162;57.568;25.814;2023-04-21T07:46:01;101447.94;;;9.94;100.00
59650;BME280;46162;57.568;25.814;2023-04-21T07:48:29;101438.06;;;10.04;100.00
59650;BME280;46162;57.568;25.814;2023-04-21T07:50:58;101434.09;;;10.19;100.00
59650;BME280;46162;57.568;25.814;2023-04-21T07:53:28;101440.06;;;10.34;100.00
59650;BME280;46162;57.568;25.814;2023-04-21T07:55:57;101435.63;;;10.54;100.00
59650;BME280;46162;57.568;25.814;2023-04-21T07:58:26;101436.94;;;10.60;100.00
59650;BME280;46162;57.568;25.814;2023-04-21T08:00:56;101433.22;;;10.61;100.00
59650;BME280;46162;57.568;25.814;2023-04-21T08:03:25;101428.38;;;10.85;100.00
59650;BME280;46162;57.568;25.814;2023-04-21T08:05:54;101433.00;;;11.04;100.00
59650;BME280;46162;57.568;25.814;2023-04-21T08:08:23;101415.69;;;11.16;100.00
59650;BME280;46162;57.568;25.814;2023-04-21T08:10:52;101422.25;;;11.14;100.00
59650;BME280;46162;57.568;25.814;2023-04-21T08:13:21;101422.97;;;11.16;100.00
59650;BME280;46162;57.568;25.814;2023-04-21T08:15:52;101418.31;;;11.28;100.00
59650;BME280;46162;57.568;25.814;2023-04-21T08:18:22;101412.94;;;11.57;100.00
59650;BME280;46162;57.568;25.814;2023-04-21T08:20:51;101408.13;;;11.80;100.00
59650;BME280;46162;57.568;25.814;2023-04-21T08:23:21;101407.16;;;11.91;100.00
59650;BME280;46162;57.568;25.814;2023-04-21T08:25:50;101418.81;;;12.01;100.00
59650;BME280;46162;57.568;25.814;2023-04-21T08:28:19;101406.13;;;11.92;100.00
59650;BME280;46162;57.568;25.814;2023-04-21T08:30:48;101400.72;;;12.01;100.00
59650;BME280;46162;57.568;25.814;2023-04-21T08:33:16;101412.97;;;12.05;100.00
59650;BME280;46162;57.568;25.814;2023-04-21T08:35:46;101404.44;;;12.10;100.00
59650;BME280;46162;57.568;25.814;2023-04-21T08:38:30;101401.13;;;12.26;100.00
59650;BME280;46162;57.568;25.814;2023-04-21T08:40:58;101400.16;;;12.17;100.00
59650;BME280;46162;57.568;25.814;2023-04-21T08:43:28;101400.44;;;12.14;100.00
59650;BME280;46162;57.568;25.814;2023-04-21T08:45:56;101392.19;;;11.96;100.00
59650;BME280;46162;57.568;25.814;2023-04-21T08:48:28;101396.03;;;11.94;100.00
59650;BME280;46162;57.568;25.814;2023-04-21T08:51:01;101389.63;;;12.14;100.00
59650;BME280;46162;57.568;25.814;2023-04-21T08:53:29;101392.16;;;12.16;100.00
59650;BME280;46162;57.568;25.814;2023-04-21T08:55:58;101390.16;;;12.18;100.00
59650;BME280;46162;57.568;25.814;2023-04-21T08:58:37;101384.13;;;12.34;100.00
59650;BME280;46162;57.568;25.814;2023-04-21T09:01:07;101387.28;;;12.39;100.00
59650;BME280;46162;57.568;25.814;2023-04-21T09:03:37;101395.28;;;12.31;100.00
59650;BME280;46162;57.568;25.814;2023-04-21T09:06:08;101384.13;;;12.34;100.00
59650;BME280;46162;57.568;25.814;2023-04-21T09:08:41;101387.81;;;12.52;100.00
59650;BME280;46162;57.568;25.814;2023-04-21T09:11:13;101379.94;;;12.59;100.00
59650;BME280;46162;57.568;25.814;2023-04-21T09:13:42;101366.78;;;12.74;100.00
59650;BME280;46162;57.568;25.814;2023-04-21T09:16:16;101381.41;;;12.81;100.00
59650;BME280;46162;57.568;25.814;2023-04-21T09:18:46;101370.91;;;12.96;100.00
59650;BME280;46162;57.568;25.814;2023-04-21T09:21:17;101369.03;;;13.06;100.00
59650;BME280;46162;57.568;25.814;2023-04-21T09:23:47;101368.03;;;13.25;100.00
59650;BME280;46162;57.568;25.814;2023-04-21T09:26:18;101371.28;;;13.38;100.00
59650;BME280;46162;57.568;25.814;2023-04-21T09:28:48;101362.78;;;13.51;100.00
59650;BME280;46162;57.568;25.814;2023-04-21T09:31:19;101369.50;;;13.65;100.00
59650;BME280;46162;57.568;25.814;2023-04-21T09:33:52;101363.69;;;13.77;100.00
59650;BME280;46162;57.568;25.814;2023-04-21T09:36:29;101358.84;;;13.89;100.00
59650;BME280;46162;57.568;25.814;2023-04-21T09:38:59;101351.31;;;14.01;100.00
59650;BME280;46162;57.568;25.814;2023-04-21T09:41:49;101346.59;;;14.03;100.00
59650;BME280;46162;57.568;25.814;2023-04-21T09:44:17;101350.38;;;14.10;100.00
59650;BME280;46162;57.568;25.814;2023-04-21T09:46:48;101343.44;;;14.16;100.00
59650;BME280;46162;57.568;25.814;2023-04-21T09:49:21;101341.00;;;14.31;100.00
59650;BME280;46162;57.568;25.814;2023-04-21T09:51:52;101339.13;;;14.31;100.00
59650;BME280;46162;57.568;25.814;2023-04-21T09:54:28;101332.41;;;14.44;100.00
59650;BME280;46162;57.568;25.814;2023-04-21T09:56:59;101322.50;;;14.60;100.00
59650;BME280;46162;57.568;25.814;2023-04-21T09:59:33;101311.72;;;14.51;100.00
59650;BME280;46162;57.568;25.814;2023-04-21T10:02:05;101320.16;;;14.66;100.00
59650;BME280;46162;57.568;25.814;2023-04-21T10:04:35;101317.66;;;14.72;100.00
59650;BME280;46162;57.568;25.814;2023-04-21T10:07:08;101320.75;;;14.86;100.00
59650;BME280;46162;57.568;25.814;2023-04-21T10:09:41;101322.00;;;14.99;100.00
59650;BME280;46162;57.568;25.814;2023-04-21T10:12:13;101313.47;;;14.94;97.88
59650;BME280;46162;57.568;25.814;2023-04-21T10:14:42;101309.78;;;15.03;100.00
59650;BME280;46162;57.568;25.814;2023-04-21T10:17:11;101297.88;;;15.04;99.38
59650;BME280;46162;57.568;25.814;2023-04-21T10:19:48;101295.16;;;15.13;87.57
59650;BME280;46162;57.568;25.814;2023-04-21T10:22:32;101287.53;;;15.16;100.00
59650;BME280;46162;57.568;25.814;2023-04-21T10:25:03;101287.03;;;15.29;93.24
59650;BME280;46162;57.568;25.814;2023-04-21T10:27:32;101286.16;;;15.20;99.70
59650;BME280;46162;57.568;25.814;2023-04-21T10:30:17;101272.91;;;15.09;87.11
59650;BME280;46162;57.568;25.814;2023-04-21T10:32:47;101281.59;;;15.37;100.00
59650;BME280;46162;57.568;25.814;2023-04-21T10:35:21;101276.69;;;15.65;100.00
59650;BME280;46162;57.568;25.814;2023-04-21T10:37:52;101268.84;;;15.54;87.01
59650;BME280;46162;57.568;25.814;2023-04-21T10:40:33;101267.00;;;15.71;92.66
59650;BME280;46162;57.568;25.814;2023-04-21T10:43:41;101268.34;;;15.59;90.82
59650;BME280;46162;57.568;25.814;2023-04-21T10:46:33;101259.50;;;15.16;86.65
59650;BME280;46162;57.568;25.814;2023-04-21T10:49:06;101256.97;;;15.31;97.36
59650;BME280;46162;57.568;25.814;2023-04-21T10:52:03;101257.28;;;15.44;97.50
59650;BME280;46162;57.568;25.814;2023-04-21T10:54:42;101253.22;;;15.48;98.03
59650;BME280;46162;57.568;25.814;2023-04-21T10:57:14;101254.56;;;15.27;84.66
59650;BME280;46162;57.568;25.814;2023-04-21T10:59:44;101243.69;;;15.60;100.00
59650;BME280;46162;57.568;25.814;2023-04-21T11:02:14;101240.78;;;15.86;89.20
59650;BME280;46162;57.568;25.814;2023-04-21T11:04:44;101244.19;;;15.72;93.19
59650;BME280;46162;57.568;25.814;2023-04-21T11:07:16;101233.81;;;15.84;95.54
59650;BME280;46162;57.568;25.814;2023-04-21T11:09:47;101234.81;;;15.91;93.23
59650;BME280;46162;57.568;25.814;2023-04-21T11:12:17;101232.25;;;15.89;92.83
59650;BME280;46162;57.568;25.814;2023-04-21T11:14:46;101226.84;;;15.73;95.51
59650;BME280;46162;57.568;25.814;2023-04-21T11:17:17;101219.53;;;15.74;84.95
59650;BME280;46162;57.568;25.814;2023-04-21T11:19:47;101221.88;;;15.93;94.40
59650;BME280;46162;57.568;25.814;2023-04-21T11:22:21;101223.09;;;15.74;100.00
59650;BME280;46162;57.568;25.814;2023-04-21T11:24:53;101207.97;;;15.39;95.16
59650;BME280;46162;57.568;25.814;2023-04-21T11:27:22;101207.09;;;15.55;93.81
59650;BME280;46162;57.568;25.814;2023-04-21T11:29:51;101205.56;;;15.77;93.82
59650;BME280;46162;57.568;25.814;2023-04-21T11:32:20;101199.44;;;15.66;94.59
59650;BME280;46162;57.568;25.814;2023-04-21T11:34:48;101204.88;;;15.91;98.94
59650;BME280;46162;57.568;25.814;2023-04-21T11:37:23;101199.22;;;16.01;97.60
59650;BME280;46162;57.568;25.814;2023-04-21T11:39:57;101187.50;;;15.92;89.49
59650;BME280;46162;57.568;25.814;2023-04-21T11:42:27;101188.66;;;16.06;90.06
59650;BME280;46162;57.568;25.814;2023-04-21T11:44:56;101188.28;;;16.17;82.91
59650;BME280;46162;57.568;25.814;2023-04-21T11:47:26;101179.38;;;16.23;88.07
59650;BME280;46162;57.568;25.814;2023-04-21T11:49:56;101179.88;;;16.27;80.45
59650;BME280;46162;57.568;25.814;2023-04-21T11:52:26;101168.69;;;16.13;90.71
59650;BME280;46162;57.568;25.814;2023-04-21T11:54:58;101174.41;;;16.27;86.99
59650;BME280;46162;57.568;25.814;2023-04-21T11:57:28;101177.19;;;16.19;79.51
59650;BME280;46162;57.568;25.814;2023-04-21T11:59:59;101172.78;;;16.09;91.14
59650;BME280;46162;57.568;25.814;2023-04-21T12:02:31;101169.31;;;16.24;74.32
59650;BME280;46162;57.568;25.814;2023-04-21T12:05:01;101163.88;;;16.32;71.37
59650;BME280;46162;57.568;25.814;2023-04-21T12:07:31;101162.41;;;16.13;71.33
59650;BME280;46162;57.568;25.814;2023-04-21T12:10:08;101157.97;;;15.73;73.03
59650;BME280;46162;57.568;25.814;2023-04-21T12:12:38;101161.16;;;15.76;76.48
59650;BME280;46162;57.568;25.814;2023-04-21T12:15:08;101157.94;;;15.56;82.78
59650;BME280;46162;57.568;25.814;2023-04-21T12:17:37;101157.44;;;15.61;86.45
59650;BME280;46162;57.568;25.814;2023-04-21T12:20:07;101151.84;;;15.71;93.87
59650;BME280;46162;57.568;25.814;2023-04-21T12:22:36;101152.97;;;15.84;88.58
59650;BME280;46162;57.568;25.814;2023-04-21T12:25:07;101150.44;;;15.66;92.17
59650;BME280;46162;57.568;25.814;2023-04-21T12:27:36;101145.38;;;15.47;93.39
59650;BME280;46162;57.568;25.814;2023-04-21T12:30:05;101140.91;;;15.62;92.60
59650;BME280;46162;57.568;25.814;2023-04-21T12:32:35;101147.75;;;15.58;87.00
59650;BME280;46162;57.568;25.814;2023-04-21T12:35:04;101140.41;;;15.67;96.44
59650;BME280;46162;57.568;25.814;2023-04-21T12:37:32;101137.38;;;15.54;83.95
59650;BME280;46162;57.568;25.814;2023-04-21T12:40:01;101129.56;;;15.42;89.09
59650;BME280;46162;57.568;25.814;2023-04-21T12:42:31;101130.06;;;15.38;95.90
59650;BME280;46162;57.568;25.814;2023-04-21T12:45:04;101131.81;;;15.22;100.00
59650;BME280;46162;57.568;25.814;2023-04-21T12:47:32;101134.53;;;15.14;95.58
59650;BME280;46162;57.568;25.814;2023-04-21T12:50:01;101122.44;;;15.25;88.94
59650;BME280;46162;57.568;25.814;2023-04-21T12:52:30;101125.69;;;15.12;98.92